createdAt,value
2022-12-11T00:01:48.074Z,23.47
2022-12-11T00:06:54.562Z,25.58
2022-12-11T00:12:01.106Z,25.56
2022-12-11T00:17:07.529Z,25.24
2022-12-11T00:22:13.973Z,24.52
2022-12-11T00:27:20.139Z,24.80
2022-12-11T00:32:28.313Z,25.63
2022-12-11T00:37:32.140Z,25.05
2022-12-11T00:42:38.371Z,25.57
2022-12-11T00:47:44.964Z,26.73
2022-12-11T00:52:51.403Z,25.63
2022-12-11T00:57:57.920Z,23.47
2022-12-11T01:03:04.230Z,24.87
2022-12-11T01:08:10.422Z,26.83
2022-12-11T01:13:16.831Z,25.07
2022-12-11T01:18:23.000Z,25.93
2022-12-11T01:23:29.201Z,24.55
2022-12-11T01:28:35.491Z,35.31
2022-12-11T01:33:41.678Z,39.35
2022-12-11T01:38:48.028Z,35.76
2022-12-11T01:43:54.141Z,44.31
2022-12-11T01:50:03.712Z,57.95
2022-12-11T01:55:10.043Z,52.65
2022-12-11T02:00:15.634Z,48.08
2022-12-11T02:05:21.792Z,44.92
2022-12-11T02:10:27.959Z,44.50
2022-12-11T02:15:34.249Z,49.65
2022-12-11T02:20:40.678Z,52.63
2022-12-11T02:25:46.832Z,52.20
2022-12-11T02:30:53.034Z,54.18
2022-12-11T02:35:59.135Z,51.17
2022-12-11T02:41:05.386Z,52.27
2022-12-11T02:46:11.539Z,53.36
2022-12-11T02:51:17.666Z,48.63
2022-12-11T02:56:24.658Z,48.58
2022-12-11T03:01:31.083Z,49.91
2022-12-11T03:07:46.476Z,51.45
2022-12-11T03:12:53.902Z,44.04
2022-12-11T03:17:58.423Z,45.37
2022-12-11T03:23:04.615Z,45.06
2022-12-11T03:28:11.019Z,42.25
2022-12-11T03:33:17.188Z,44.43
2022-12-11T03:38:23.357Z,48.06
2022-12-11T03:43:29.599Z,44.49
2022-12-11T03:48:35.711Z,45.14
2022-12-11T03:53:41.903Z,45.15
2022-12-11T03:58:48.096Z,45.11
2022-12-11T04:03:54.413Z,46.46
2022-12-11T04:09:00.805Z,46.19
2022-12-11T04:14:07.087Z,43.78
2022-12-11T04:19:13.182Z,42.57
2022-12-11T04:24:19.375Z,43.10
2022-12-11T04:29:25.444Z,39.77
2022-12-11T04:34:31.666Z,38.64
2022-12-11T04:39:37.811Z,39.46
2022-12-11T04:44:44.304Z,38.16
2022-12-11T04:49:50.385Z,39.44
2022-12-11T04:54:56.632Z,40.21
2022-12-11T05:00:02.771Z,34.74
2022-12-11T05:05:09.242Z,32.88
2022-12-11T05:10:15.069Z,32.34
2022-12-11T05:15:21.267Z,31.43
2022-12-11T05:20:27.405Z,32.03
2022-12-11T05:25:33.689Z,30.79
2022-12-11T05:30:39.812Z,29.27
2022-12-11T05:35:46.167Z,27.39
2022-12-11T05:40:52.381Z,28.04
2022-12-11T05:45:58.556Z,27.07
2022-12-11T05:51:04.676Z,26.47
2022-12-11T05:56:10.871Z,25.20
2022-12-11T06:01:16.963Z,26.30
2022-12-11T06:06:23.253Z,24.28
2022-12-11T06:12:33.108Z,25.98
2022-12-11T06:17:39.363Z,42.97
2022-12-11T06:22:45.566Z,22.19
2022-12-11T06:27:51.845Z,20.56
2022-12-11T06:32:58.361Z,19.56
2022-12-11T06:38:04.748Z,19.13
2022-12-11T06:43:11.336Z,20.30
2022-12-11T06:48:18.019Z,19.72
2022-12-11T06:53:24.139Z,18.19
2022-12-11T06:58:30.338Z,20.10
2022-12-11T07:03:36.500Z,19.92
2022-12-11T07:08:42.715Z,19.89
2022-12-11T07:13:48.776Z,20.05
2022-12-11T07:18:54.955Z,17.05
2022-12-11T07:24:01.048Z,17.91
2022-12-11T07:29:07.245Z,20.01
2022-12-11T07:34:13.427Z,17.98
2022-12-11T07:39:19.702Z,19.45
2022-12-11T07:44:25.849Z,19.91
2022-12-11T07:49:32.066Z,19.92
2022-12-11T07:54:38.227Z,18.51
2022-12-11T07:59:44.449Z,19.07
2022-12-11T08:04:50.594Z,18.62
2022-12-11T08:09:56.822Z,17.85
2022-12-11T08:15:02.917Z,19.39
2022-12-11T08:20:09.905Z,18.84
2022-12-11T08:25:16.468Z,16.99
2022-12-11T08:30:23.068Z,16.73
2022-12-11T08:35:29.184Z,17.72
2022-12-11T08:40:35.810Z,16.74
2022-12-11T08:45:41.991Z,17.22
2022-12-11T08:52:00.238Z,19.34
2022-12-11T08:57:06.645Z,16.46
2022-12-11T09:02:13.004Z,16.32
2022-12-11T09:07:19.122Z,16.23
2022-12-11T09:12:25.318Z,17.94
2022-12-11T09:17:31.705Z,18.09
2022-12-11T09:22:38.230Z,18.85
2022-12-11T09:27:44.355Z,18.27
2022-12-11T09:33:35.244Z,18.96
2022-12-11T09:38:41.354Z,19.79
2022-12-11T09:43:47.501Z,21.06
2022-12-11T09:48:53.616Z,18.14
2022-12-11T09:53:59.823Z,18.57
2022-12-11T09:59:05.986Z,20.45
2022-12-11T10:04:12.791Z,17.34
2022-12-11T10:09:18.888Z,18.66
2022-12-11T10:14:25.356Z,18.66
2022-12-11T10:19:31.422Z,15.88
2022-12-11T10:29:43.293Z,15.02
2022-12-11T10:34:49.782Z,15.00
2022-12-11T10:39:55.976Z,14.63
2022-12-11T10:45:02.276Z,13.10
2022-12-11T10:50:08.690Z,13.25
2022-12-11T10:55:15.235Z,12.33
2022-12-11T11:00:21.736Z,12.14
2022-12-11T11:05:27.945Z,15.62
2022-12-11T11:10:34.059Z,11.99
2022-12-11T11:15:40.286Z,13.17
2022-12-11T11:20:46.410Z,13.46
2022-12-11T11:25:52.717Z,12.14
2022-12-11T11:30:58.941Z,11.71
2022-12-11T11:36:06.909Z,12.14
2022-12-11T11:41:15.156Z,11.04
2022-12-11T11:46:18.764Z,12.25
2022-12-11T11:52:29.580Z,13.29
2022-12-11T11:57:35.950Z,11.51
2022-12-11T12:02:42.188Z,13.03
2022-12-11T12:07:48.897Z,14.69
2022-12-11T12:12:57.483Z,15.33
2022-12-11T12:18:03.746Z,16.92
2022-12-11T12:23:10.322Z,16.15
2022-12-11T12:28:16.733Z,17.05
2022-12-11T12:33:25.365Z,16.47
2022-12-11T12:39:11.705Z,16.23
2022-12-11T12:44:17.975Z,13.44
2022-12-11T12:49:24.207Z,10.84
2022-12-11T12:54:30.353Z,10.05
2022-12-11T12:59:36.601Z,11.30
2022-12-11T13:04:56.103Z,11.18
2022-12-11T13:09:48.777Z,12.58
2022-12-11T13:14:54.846Z,12.93
2022-12-11T13:20:01.023Z,13.43
2022-12-11T13:25:07.185Z,15.77
2022-12-11T13:30:13.494Z,13.93
2022-12-11T13:35:19.548Z,14.80
2022-12-11T13:40:26.107Z,15.57
2022-12-11T13:45:32.245Z,14.72
2022-12-11T13:50:38.405Z,13.45
2022-12-11T13:55:44.560Z,13.72
2022-12-11T14:00:50.830Z,14.00
2022-12-11T14:05:57.259Z,13.22
2022-12-11T14:11:03.640Z,13.17
2022-12-11T14:16:09.751Z,12.83
2022-12-11T14:21:15.937Z,14.01
2022-12-11T14:26:22.076Z,14.64
2022-12-11T14:31:28.299Z,14.50
2022-12-11T14:36:34.780Z,12.32
2022-12-11T14:41:40.974Z,11.69
2022-12-11T14:46:47.359Z,13.14
2022-12-11T14:51:53.546Z,13.17
2022-12-11T14:57:00.075Z,13.97
2022-12-11T15:02:06.363Z,11.04
2022-12-11T15:07:12.354Z,13.63
2022-12-11T15:12:18.911Z,13.94
2022-12-11T15:17:25.044Z,14.91
2022-12-11T15:22:31.311Z,15.67
2022-12-11T15:27:37.782Z,17.31
2022-12-11T15:32:44.255Z,16.18
2022-12-11T15:37:50.417Z,15.35
2022-12-11T15:42:57.055Z,15.81
2022-12-11T15:48:03.230Z,15.64
2022-12-11T15:53:09.381Z,15.14
2022-12-11T15:58:15.532Z,16.00
2022-12-11T16:03:22.064Z,16.35
2022-12-11T16:08:28.574Z,16.58
2022-12-11T16:13:35.066Z,16.93
2022-12-11T16:18:41.141Z,17.30
2022-12-11T16:23:47.405Z,16.15
2022-12-11T16:28:53.587Z,17.09
2022-12-11T16:33:59.871Z,17.34
2022-12-11T16:39:05.962Z,18.39
2022-12-11T16:44:12.276Z,16.20
2022-12-11T16:49:18.413Z,15.84
2022-12-11T16:54:24.731Z,17.60
2022-12-11T16:59:36.576Z,18.74
2022-12-11T17:04:36.672Z,18.69
2022-12-11T17:09:42.860Z,17.26
2022-12-11T17:14:49.254Z,18.49
2022-12-11T17:19:55.326Z,18.29
2022-12-11T17:25:01.985Z,18.67
2022-12-11T17:30:08.087Z,18.03
2022-12-11T17:35:14.907Z,19.46
2022-12-11T17:40:20.939Z,18.87
2022-12-11T17:45:27.074Z,16.48
2022-12-11T17:50:33.238Z,14.84
2022-12-11T17:55:39.468Z,17.16
2022-12-11T18:00:45.590Z,15.72
2022-12-11T18:05:52.124Z,15.43
2022-12-11T18:10:58.575Z,15.85
2022-12-11T18:16:04.828Z,13.29
2022-12-11T18:21:10.927Z,13.94
2022-12-11T18:26:17.175Z,14.75
2022-12-11T18:31:24.194Z,14.98
2022-12-11T18:36:30.370Z,17.11
2022-12-11T18:41:37.275Z,16.49
2022-12-11T18:46:43.619Z,14.03
2022-12-11T18:51:49.626Z,13.09
2022-12-11T18:56:55.977Z,13.42
2022-12-11T19:02:02.248Z,14.58
2022-12-11T19:07:09.166Z,14.48
2022-12-11T19:12:15.297Z,14.11
2022-12-11T19:17:21.532Z,13.44
2022-12-11T19:22:27.697Z,12.88
2022-12-11T19:27:34.002Z,15.68
2022-12-11T19:32:40.109Z,14.15
2022-12-11T19:37:46.478Z,13.00
2022-12-11T19:42:52.615Z,14.17
2022-12-11T19:47:58.947Z,15.53
2022-12-11T19:53:05.138Z,14.33
2022-12-11T19:58:11.328Z,13.92
2022-12-11T20:03:17.486Z,15.05
2022-12-11T20:13:29.302Z,15.13
2022-12-11T20:18:35.809Z,13.82
2022-12-11T20:23:41.968Z,15.40
2022-12-11T20:28:48.167Z,14.99
2022-12-11T20:33:54.671Z,14.93
2022-12-11T20:39:00.871Z,13.65
2022-12-11T20:44:07.380Z,13.64
2022-12-11T20:49:13.521Z,14.45
2022-12-11T20:54:20.436Z,13.73
2022-12-11T20:59:26.592Z,16.38
2022-12-11T21:04:32.653Z,15.13
2022-12-11T21:09:38.844Z,16.18
2022-12-11T21:14:45.331Z,15.90
2022-12-11T21:19:51.574Z,15.10
2022-12-11T21:24:57.642Z,14.86
2022-12-11T21:30:03.829Z,14.56
2022-12-11T21:35:10.175Z,20.57
2022-12-11T21:40:16.424Z,16.11
2022-12-11T21:46:05.056Z,17.33
2022-12-11T21:50:28.233Z,16.88
2022-12-11T21:55:34.386Z,15.94
2022-12-11T22:00:40.737Z,17.18
2022-12-11T22:05:46.736Z,16.83
2022-12-11T22:10:52.940Z,18.39
2022-12-11T22:15:59.101Z,21.67
2022-12-11T22:21:05.409Z,21.87
2022-12-11T22:26:11.487Z,22.09
2022-12-11T22:31:17.756Z,20.59
2022-12-11T22:36:24.184Z,23.73
2022-12-11T22:41:30.355Z,26.25
2022-12-11T22:46:36.508Z,27.54
2022-12-11T22:51:43.044Z,29.77
2022-12-11T22:56:49.145Z,28.64
2022-12-11T23:01:55.418Z,27.63
2022-12-11T23:07:01.607Z,32.00
2022-12-11T23:12:07.944Z,27.51
2022-12-11T23:17:14.055Z,29.18
2022-12-11T23:22:21.136Z,26.43
2022-12-11T23:27:27.305Z,26.39
2022-12-11T23:32:33.523Z,29.67
2022-12-11T23:37:39.655Z,27.31
2022-12-11T23:42:45.856Z,28.20
2022-12-11T23:47:51.949Z,27.57
2022-12-11T23:52:58.282Z,29.68
2022-12-11T23:58:04.808Z,27.14
